createdAt,value
2018-11-27T00:01:31.549Z,101649.48
2018-11-27T00:04:00.982Z,101651.69
2018-11-27T00:06:30.258Z,101651.38
2018-11-27T00:08:59.596Z,101658.19
2018-11-27T00:11:28.876Z,101666.66
2018-11-27T00:13:58.128Z,101665.02
2018-11-27T00:16:27.427Z,101668.07
2018-11-27T00:18:56.797Z,101675.55
2018-11-27T00:21:26.053Z,101669.39
2018-11-27T00:23:55.362Z,101670.91
2018-11-27T00:26:24.840Z,101668.36
2018-11-27T00:28:54.234Z,101673.01
2018-11-27T00:31:23.634Z,101671.92
2018-11-27T00:33:53.235Z,101679.67
2018-11-27T00:36:22.820Z,101680.08
2018-11-27T00:38:52.105Z,101685.45
2018-11-27T00:41:21.370Z,101688.91
2018-11-27T00:43:50.641Z,101691.77
2018-11-27T00:46:19.991Z,101690.14
2018-11-27T00:48:49.248Z,101698.24
2018-11-27T00:51:18.518Z,101692.78
2018-11-27T00:53:47.806Z,101691.88
2018-11-27T00:56:17.325Z,101695.02
2018-11-27T00:58:46.536Z,101696.64
2018-11-27T01:01:15.834Z,101704.14
2018-11-27T01:03:45.212Z,101703.50
2018-11-27T01:06:14.513Z,101704.70
2018-11-27T01:08:43.867Z,101709.02
2018-11-27T01:11:13.175Z,101705.60
2018-11-27T01:13:42.511Z,101703.78
2018-11-27T01:16:11.828Z,101712.36
2018-11-27T01:18:41.117Z,101711.37
2018-11-27T01:21:10.471Z,101716.97
2018-11-27T01:23:39.763Z,101714.29
2018-11-27T01:26:09.039Z,101721.35
2018-11-27T01:28:38.300Z,101717.84
2018-11-27T01:31:07.508Z,101719.61
2018-11-27T01:38:30.867Z,101709.77
2018-11-27T01:41:00.738Z,101710.43
2018-11-27T01:43:30.140Z,101711.95
2018-11-27T01:45:59.910Z,101712.45
2018-11-27T01:48:29.132Z,101712.41
2018-11-27T01:50:58.385Z,101707.75
2018-11-27T01:53:27.707Z,101713.41
2018-11-27T01:55:57.151Z,101713.28
2018-11-27T01:58:26.375Z,101713.66
2018-11-27T02:00:55.725Z,101715.88
2018-11-27T02:03:25.159Z,101713.12
2018-11-27T02:05:54.382Z,101719.71
2018-11-27T02:08:24.807Z,101713.08
2018-11-27T02:10:54.505Z,101706.98
2018-11-27T02:13:23.984Z,101718.39
2018-11-27T02:15:53.328Z,101717.56
2018-11-27T02:18:22.648Z,101714.64
2018-11-27T02:20:52.075Z,101717.03
2018-11-27T02:23:21.530Z,101715.55
2018-11-27T02:25:50.854Z,101709.37
2018-11-27T02:28:20.144Z,101716.66
2018-11-27T02:30:49.647Z,101706.69
2018-11-27T02:33:18.891Z,101715.50
2018-11-27T02:35:48.187Z,101702.31
2018-11-27T02:38:19.056Z,101704.59
2018-11-27T02:40:48.326Z,101704.34
2018-11-27T02:43:17.963Z,101700.34
2018-11-27T02:45:48.388Z,101715.75
2018-11-27T02:48:17.631Z,101703.14
2018-11-27T02:50:46.836Z,101704.04
2018-11-27T02:53:16.173Z,101709.28
2018-11-27T02:55:45.535Z,101718.13
2018-11-27T02:58:14.739Z,101709.31
2018-11-27T03:00:45.608Z,101716.73
2018-11-27T03:03:14.852Z,101702.31
2018-11-27T03:05:44.170Z,101715.61
2018-11-27T03:08:13.768Z,101716.89
2018-11-27T03:10:43.179Z,101719.98
2018-11-27T03:13:12.478Z,101716.52
2018-11-27T03:15:41.808Z,101718.63
2018-11-27T03:18:11.137Z,101713.77
2018-11-27T03:20:40.343Z,101718.66
2018-11-27T03:23:09.688Z,101717.76
2018-11-27T03:25:38.944Z,101720.84
2018-11-27T03:28:08.192Z,101714.30
2018-11-27T03:30:37.499Z,101713.05
2018-11-27T03:33:06.702Z,101717.42
2018-11-27T03:35:35.961Z,101723.52
2018-11-27T03:38:05.319Z,101721.72
2018-11-27T03:40:34.684Z,101724.72
2018-11-27T03:43:04.624Z,101722.50
2018-11-27T03:45:33.863Z,101735.95
2018-11-27T03:48:03.331Z,101734.00
2018-11-27T03:50:33.452Z,101730.48
2018-11-27T03:53:02.688Z,101729.09
2018-11-27T03:55:31.924Z,101733.12
2018-11-27T03:58:01.218Z,101737.05
2018-11-27T04:00:31.440Z,101738.17
2018-11-27T04:03:05.469Z,101742.81
2018-11-27T04:05:34.967Z,101739.23
2018-11-27T04:08:04.301Z,101747.09
2018-11-27T04:10:33.551Z,101749.77
2018-11-27T04:13:02.821Z,101744.77
2018-11-27T04:15:32.066Z,101747.77
2018-11-27T04:18:01.373Z,101743.81
2018-11-27T04:20:32.260Z,101740.95
2018-11-27T04:22:59.932Z,101737.58
2018-11-27T04:25:29.208Z,101741.03
2018-11-27T04:27:58.449Z,101740.02
2018-11-27T04:30:27.821Z,101749.77
2018-11-27T04:32:57.125Z,101749.77
2018-11-27T04:35:26.526Z,101750.72
2018-11-27T04:37:56.181Z,101753.73
2018-11-27T04:40:25.537Z,101760.44
2018-11-27T04:42:54.771Z,101755.16
2018-11-27T04:45:26.176Z,101763.00
2018-11-27T04:47:55.523Z,101764.43
2018-11-27T04:50:24.977Z,101762.55
2018-11-27T04:52:54.200Z,101760.81
2018-11-27T04:55:23.468Z,101765.07
2018-11-27T04:57:53.426Z,101772.45
2018-11-27T05:00:23.751Z,101768.20
2018-11-27T05:02:53.011Z,101767.33
2018-11-27T05:05:23.071Z,101764.20
2018-11-27T05:07:52.407Z,101775.73
2018-11-27T05:10:22.741Z,101775.95
2018-11-27T05:12:52.204Z,101774.00
2018-11-27T05:15:23.928Z,101787.94
2018-11-27T05:17:55.502Z,101790.23
2018-11-27T05:20:24.736Z,101791.55
2018-11-27T05:22:54.095Z,101790.83
2018-11-27T05:25:23.416Z,101793.77
2018-11-27T05:27:55.851Z,101795.58
2018-11-27T05:30:28.295Z,101803.00
2018-11-27T05:32:58.278Z,101806.16
2018-11-27T05:35:29.420Z,101803.45
2018-11-27T05:38:01.816Z,101794.64
2018-11-27T05:40:31.293Z,101799.39
2018-11-27T05:43:02.213Z,101801.91
2018-11-27T05:45:31.759Z,101794.98
2018-11-27T05:48:01.135Z,101798.83
2018-11-27T05:50:30.420Z,101803.65
2018-11-27T05:52:59.711Z,101805.08
2018-11-27T05:55:29.147Z,101809.37
2018-11-27T05:57:58.618Z,101802.33
2018-11-27T06:00:29.725Z,101810.24
2018-11-27T06:03:00.703Z,101803.31
2018-11-27T06:05:30.050Z,101805.95
2018-11-27T06:07:59.404Z,101806.66
2018-11-27T06:10:28.986Z,101815.92
2018-11-27T06:12:58.624Z,101814.80
2018-11-27T06:15:28.188Z,101811.33
2018-11-27T06:18:00.127Z,101810.47
2018-11-27T06:20:29.564Z,101818.73
2018-11-27T06:22:59.000Z,101822.72
2018-11-27T06:25:30.767Z,101824.48
2018-11-27T06:28:01.826Z,101818.31
2018-11-27T06:30:32.112Z,101819.73
2018-11-27T06:36:15.781Z,101825.45
2018-11-27T06:38:45.021Z,101815.81
2018-11-27T06:41:14.584Z,101826.87
2018-11-27T06:43:44.140Z,101825.53
2018-11-27T06:46:13.455Z,101832.60
2018-11-27T06:48:42.891Z,101828.84
2018-11-27T06:51:12.224Z,101839.36
2018-11-27T06:53:41.535Z,101847.61
2018-11-27T06:56:10.742Z,101846.75
2018-11-27T06:58:41.387Z,101849.09
2018-11-27T07:01:10.582Z,101854.39
2018-11-27T07:03:39.866Z,101856.00
2018-11-27T07:06:10.100Z,101858.70
2018-11-27T07:08:39.402Z,101858.73
2018-11-27T07:11:08.669Z,101866.22
2018-11-27T07:13:38.336Z,101874.96
2018-11-27T07:16:07.792Z,101871.88
2018-11-27T07:18:37.013Z,101876.28
2018-11-27T07:21:07.291Z,101880.63
2018-11-27T07:23:36.556Z,101880.14
2018-11-27T07:26:06.340Z,101880.20
2018-11-27T07:28:35.707Z,101881.45
2018-11-27T07:31:05.147Z,101882.20
2018-11-27T07:33:34.371Z,101886.15
2018-11-27T07:36:03.723Z,101885.34
2018-11-27T07:38:33.038Z,101885.77
2018-11-27T07:41:02.241Z,101891.70
2018-11-27T07:43:32.543Z,101895.24
2018-11-27T07:46:01.935Z,101896.56
2018-11-27T07:48:31.187Z,101905.76
2018-11-27T07:51:00.565Z,101903.38
2018-11-27T07:53:29.774Z,101903.79
2018-11-27T07:55:58.972Z,101910.80
2018-11-27T07:58:28.196Z,101906.71
2018-11-27T08:00:57.483Z,101917.64
2018-11-27T08:03:26.761Z,101922.02
2018-11-27T08:05:56.057Z,101932.50
2018-11-27T08:08:25.283Z,101929.86
2018-11-27T08:10:54.643Z,101934.23
2018-11-27T08:13:27.489Z,101934.52
2018-11-27T08:15:56.807Z,101928.41
2018-11-27T08:18:27.430Z,101927.12
2018-11-27T08:20:56.890Z,101934.72
2018-11-27T08:23:26.148Z,101938.19
2018-11-27T08:25:55.836Z,101937.36
2018-11-27T08:28:25.315Z,101936.52
2018-11-27T08:30:54.622Z,101942.15
2018-11-27T08:33:24.704Z,101936.24
2018-11-27T08:35:54.195Z,101939.97
2018-11-27T08:38:23.514Z,101945.34
2018-11-27T08:40:52.906Z,101944.23
2018-11-27T08:43:22.172Z,101934.78
2018-11-27T08:45:51.545Z,101938.55
2018-11-27T08:48:20.786Z,101946.32
2018-11-27T08:50:50.042Z,101951.64
2018-11-27T08:53:19.377Z,101956.47
2018-11-27T08:55:48.692Z,101957.56
2018-11-27T08:58:21.635Z,101953.55
2018-11-27T09:00:50.927Z,101963.81
2018-11-27T09:03:20.244Z,101962.58
2018-11-27T09:05:49.578Z,101972.65
2018-11-27T09:08:18.859Z,101979.17
2018-11-27T09:10:48.184Z,101984.34
2018-11-27T09:13:17.540Z,101980.22
2018-11-27T09:15:47.801Z,101978.64
2018-11-27T09:18:19.472Z,101985.52
2018-11-27T09:20:48.773Z,101987.05
2018-11-27T09:23:18.038Z,101990.59
2018-11-27T09:25:47.273Z,101993.73
2018-11-27T09:28:16.554Z,101998.23
2018-11-27T09:30:45.879Z,102004.39
2018-11-27T09:33:15.381Z,102005.80
2018-11-27T09:35:44.986Z,102007.23
2018-11-27T09:38:14.219Z,102017.14
2018-11-27T09:40:43.610Z,102013.34
2018-11-27T09:43:12.922Z,102018.96
2018-11-27T09:45:43.578Z,102018.17
2018-11-27T09:48:13.028Z,102019.25
2018-11-27T09:50:42.307Z,102021.89
2018-11-27T09:53:13.067Z,102018.19
2018-11-27T09:55:43.441Z,102022.39
2018-11-27T09:58:12.776Z,102016.41
2018-11-27T10:00:42.136Z,102013.55
2018-11-27T10:03:12.969Z,102017.02
2018-11-27T10:05:42.218Z,102014.55
2018-11-27T10:08:11.509Z,102013.23
2018-11-27T10:10:41.895Z,102008.88
2018-11-27T10:13:11.165Z,102015.16
2018-11-27T10:15:40.446Z,102019.87
2018-11-27T10:18:09.793Z,102014.13
2018-11-27T10:20:40.163Z,102011.16
2018-11-27T10:23:13.562Z,102009.55
2018-11-27T10:25:43.033Z,102006.00
2018-11-27T10:28:12.292Z,102010.45
2018-11-27T10:30:44.300Z,102007.02
2018-11-27T10:33:13.558Z,102007.75
2018-11-27T10:35:44.542Z,102009.71
2018-11-27T10:38:13.774Z,101992.89
2018-11-27T10:40:43.171Z,101992.14
2018-11-27T10:43:12.653Z,101994.68
2018-11-27T10:45:42.203Z,101990.44
2018-11-27T10:48:11.471Z,101995.69
2018-11-27T10:50:40.775Z,101999.09
2018-11-27T10:53:11.192Z,102003.83
2018-11-27T10:55:40.576Z,102005.38
2018-11-27T10:58:09.826Z,101994.15
2018-11-27T11:00:45.510Z,101998.48
2018-11-27T11:03:45.143Z,101992.87
2018-11-27T11:06:14.525Z,102001.12
2018-11-27T11:08:43.923Z,102007.64
2018-11-27T11:11:13.228Z,102001.80
2018-11-27T11:13:42.939Z,101995.55
2018-11-27T11:16:12.195Z,101993.65
2018-11-27T11:18:41.492Z,101996.80
2018-11-27T11:21:11.082Z,101998.65
2018-11-27T11:23:40.552Z,102006.80
2018-11-27T11:26:09.842Z,102002.79
2018-11-27T11:28:39.061Z,102007.09
2018-11-27T11:31:08.365Z,102011.09
2018-11-27T11:33:37.831Z,102007.53
2018-11-27T11:36:07.655Z,102013.30
2018-11-27T11:38:37.540Z,102013.37
2018-11-27T11:41:07.420Z,102020.11
2018-11-27T11:43:36.728Z,102018.19
2018-11-27T11:46:06.796Z,102020.91
2018-11-27T11:48:36.182Z,102021.28
2018-11-27T11:51:07.237Z,102021.02
2018-11-27T11:53:36.547Z,102024.14
2018-11-27T11:56:07.629Z,102026.56
2018-11-27T11:58:36.984Z,102023.14
2018-11-27T12:01:06.838Z,102023.84
2018-11-27T12:03:36.072Z,102024.21
2018-11-27T12:06:05.491Z,102022.38
2018-11-27T12:08:34.926Z,102013.33
2018-11-27T12:11:04.250Z,102018.43
2018-11-27T12:13:33.386Z,102015.12
2018-11-27T12:16:03.366Z,102013.56
2018-11-27T12:18:32.559Z,102023.21
2018-11-27T12:21:02.040Z,102018.47
2018-11-27T12:23:32.183Z,102017.27
2018-11-27T12:26:01.581Z,102013.84
2018-11-27T12:28:30.864Z,102005.47
2018-11-27T12:31:00.165Z,102011.12
2018-11-27T12:33:29.490Z,102007.23
2018-11-27T12:35:58.709Z,102017.88
2018-11-27T12:38:28.379Z,102018.88
2018-11-27T12:40:57.717Z,102015.20
2018-11-27T12:43:27.102Z,102017.31
2018-11-27T12:45:56.604Z,102021.77
2018-11-27T12:48:25.926Z,102016.44
2018-11-27T12:50:55.514Z,102018.66
2018-11-27T12:53:25.408Z,102016.80
2018-11-27T12:55:55.352Z,102017.53
2018-11-27T12:58:24.944Z,102009.09
2018-11-27T13:00:54.358Z,102011.55
2018-11-27T13:03:23.604Z,102013.23
2018-11-27T13:05:52.946Z,102008.17
2018-11-27T13:08:23.612Z,102013.28
2018-11-27T13:10:53.181Z,102015.97
2018-11-27T13:13:22.456Z,102019.39
2018-11-27T13:15:52.007Z,102020.67
2018-11-27T13:18:21.398Z,102024.97
2018-11-27T13:20:50.625Z,102026.10
2018-11-27T13:23:20.009Z,102023.78
2018-11-27T13:25:49.332Z,102026.50
2018-11-27T13:28:18.726Z,102025.55
2018-11-27T13:30:56.895Z,102029.52
2018-11-27T13:34:00.602Z,102029.70
2018-11-27T13:36:30.271Z,102035.91
2018-11-27T13:39:10.773Z,102033.96
2018-11-27T13:41:40.051Z,102036.85
2018-11-27T13:44:09.635Z,102038.75
2018-11-27T13:46:39.046Z,102036.47
2018-11-27T13:49:08.606Z,102033.71
2018-11-27T13:51:37.983Z,102041.06
2018-11-27T13:54:07.963Z,102034.17
2018-11-27T13:56:38.186Z,102034.98
2018-11-27T13:59:07.359Z,102035.73
2018-11-27T14:01:37.715Z,102039.42
2018-11-27T14:04:06.473Z,102047.51
2018-11-27T14:06:35.755Z,102045.69
2018-11-27T14:09:09.016Z,102045.69
2018-11-27T14:11:38.494Z,102050.64
2018-11-27T14:14:08.475Z,102052.30
2018-11-27T14:16:38.446Z,102053.55
2018-11-27T14:19:07.769Z,102049.70
2018-11-27T14:21:37.020Z,102056.15
2018-11-27T14:24:07.205Z,102054.56
2018-11-27T14:26:36.908Z,102052.00
2018-11-27T14:29:06.647Z,102060.17
2018-11-27T14:31:36.013Z,102056.81
2018-11-27T14:34:05.899Z,102051.38
2018-11-27T14:36:35.244Z,102055.84
2018-11-27T14:39:08.384Z,102055.58
2018-11-27T14:41:38.767Z,102054.13
2018-11-27T14:44:07.996Z,102058.09
2018-11-27T14:46:37.248Z,102060.59
2018-11-27T14:49:06.583Z,102062.28
2018-11-27T14:51:35.828Z,102070.00
2018-11-27T14:54:09.402Z,102063.38
2018-11-27T14:56:38.761Z,102065.53
2018-11-27T14:59:08.181Z,102061.45
2018-11-27T15:01:37.434Z,102057.98
2018-11-27T15:04:06.746Z,102061.13
2018-11-27T15:06:36.483Z,102059.05
2018-11-27T15:09:09.205Z,102058.66
2018-11-27T15:11:38.471Z,102063.95
2018-11-27T15:14:07.718Z,102060.19
2018-11-27T15:16:37.063Z,102065.64
2018-11-27T15:19:06.449Z,102061.34
2018-11-27T15:21:35.809Z,102066.51
2018-11-27T15:24:05.486Z,102067.61
2018-11-27T15:26:35.186Z,102069.80
2018-11-27T15:29:04.505Z,102067.98
2018-11-27T15:31:33.759Z,102077.02
2018-11-27T15:34:03.071Z,102081.62
2018-11-27T15:36:32.406Z,102079.55
2018-11-27T15:39:01.834Z,102084.49
2018-11-27T15:41:31.227Z,102083.09
2018-11-27T15:44:01.534Z,102084.14
2018-11-27T15:46:30.760Z,102082.56
2018-11-27T15:49:00.837Z,102090.41
2018-11-27T15:51:30.060Z,102088.67
2018-11-27T15:53:59.389Z,102090.87
2018-11-27T15:56:29.177Z,102092.86
2018-11-27T15:58:58.550Z,102092.17
2018-11-27T16:01:27.792Z,102097.30
2018-11-27T16:03:57.704Z,102097.70
2018-11-27T16:06:27.076Z,102101.50
2018-11-27T16:08:56.339Z,102103.65
2018-11-27T16:11:25.766Z,102104.84
2018-11-27T16:13:55.798Z,102103.70
2018-11-27T16:16:24.522Z,102109.25
2018-11-27T16:18:53.958Z,102106.91
2018-11-27T16:21:23.365Z,102105.44
2018-11-27T16:23:52.640Z,102107.17
2018-11-27T16:26:22.185Z,102104.11
2018-11-27T16:28:51.510Z,102106.26
2018-11-27T16:31:20.788Z,102110.55
2018-11-27T16:33:51.159Z,102115.19
2018-11-27T16:36:20.452Z,102113.24
2018-11-27T16:38:49.957Z,102110.88
2018-11-27T16:41:19.343Z,102116.08
2018-11-27T16:43:48.626Z,102112.80
2018-11-27T16:46:17.927Z,102114.88
2018-11-27T16:48:47.226Z,102115.41
2018-11-27T16:51:16.529Z,102124.42
2018-11-27T16:53:46.558Z,102125.89
2018-11-27T16:56:15.850Z,102129.58
2018-11-27T16:58:45.212Z,102131.86
2018-11-27T17:01:14.420Z,102134.58
2018-11-27T17:03:43.872Z,102134.70
2018-11-27T17:06:13.600Z,102129.57
2018-11-27T17:08:42.832Z,102130.36
2018-11-27T17:11:12.136Z,102133.68
2018-11-27T17:13:41.472Z,102129.80
2018-11-27T17:16:10.791Z,102127.19
2018-11-27T17:18:40.125Z,102126.06
2018-11-27T17:21:09.423Z,102130.84
2018-11-27T17:23:38.778Z,102134.14
2018-11-27T17:26:08.090Z,102133.69
2018-11-27T17:28:38.038Z,102133.91
2018-11-27T17:31:12.857Z,102144.59
2018-11-27T17:34:15.302Z,102144.63
2018-11-27T17:36:44.572Z,102153.28
2018-11-27T17:39:13.879Z,102151.40
2018-11-27T17:41:43.171Z,102159.14
2018-11-27T17:44:14.654Z,102159.89
2018-11-27T17:46:44.160Z,102156.45
2018-11-27T17:49:13.493Z,102163.33
2018-11-27T17:51:42.783Z,102166.88
2018-11-27T17:54:12.161Z,102168.58
2018-11-27T17:56:42.529Z,102163.52
2018-11-27T17:59:13.021Z,102157.47
2018-11-27T18:01:42.388Z,102154.38
2018-11-27T18:04:11.651Z,102160.98
2018-11-27T18:06:40.998Z,102159.70
2018-11-27T18:09:10.288Z,102164.31
2018-11-27T18:11:40.196Z,102167.33
2018-11-27T18:14:09.423Z,102177.08
2018-11-27T18:16:38.731Z,102178.09
2018-11-27T18:19:08.044Z,102181.70
2018-11-27T18:21:37.323Z,102171.28
2018-11-27T18:24:06.744Z,102166.83
2018-11-27T18:26:35.967Z,102167.97
2018-11-27T18:29:05.810Z,102165.86
2018-11-27T18:31:35.102Z,102165.67
2018-11-27T18:34:04.594Z,102169.89
2018-11-27T18:36:34.068Z,102173.05
2018-11-27T18:39:06.755Z,102172.53
2018-11-27T18:41:37.370Z,102173.27
2018-11-27T18:44:07.434Z,102174.83
2018-11-27T18:46:36.973Z,102174.41
2018-11-27T18:49:06.443Z,102179.48
2018-11-27T18:51:35.708Z,102187.65
2018-11-27T18:54:06.822Z,102184.66
2018-11-27T18:56:36.217Z,102176.95
2018-11-27T18:59:05.543Z,102180.95
2018-11-27T19:01:35.495Z,102174.86
2018-11-27T19:04:04.853Z,102172.01
2018-11-27T19:06:34.102Z,102179.06
2018-11-27T19:09:03.464Z,102174.76
2018-11-27T19:11:32.956Z,102181.71
2018-11-27T19:14:02.173Z,102187.38
2018-11-27T19:16:32.315Z,102198.51
2018-11-27T19:19:01.660Z,102205.29
2018-11-27T19:21:31.057Z,102203.52
2018-11-27T19:24:00.529Z,102208.80
2018-11-27T19:26:29.739Z,102210.98
2018-11-27T19:28:59.075Z,102215.79
2018-11-27T19:31:28.388Z,102209.11
2018-11-27T19:33:57.643Z,102216.55
2018-11-27T19:36:26.924Z,102213.73
2018-11-27T19:38:56.276Z,102217.59
2018-11-27T19:41:25.571Z,102219.52
2018-11-27T19:43:54.870Z,102214.26
2018-11-27T19:46:24.947Z,102221.01
2018-11-27T19:48:54.199Z,102226.05
2018-11-27T19:51:23.682Z,102235.03
2018-11-27T19:53:53.272Z,102229.69
2018-11-27T19:56:22.527Z,102241.55
2018-11-27T20:01:33.921Z,102240.96
2018-11-27T20:04:04.629Z,102242.34
2018-11-27T20:06:36.265Z,102249.72
2018-11-27T20:09:08.935Z,102245.70
2018-11-27T20:11:40.185Z,102250.83
2018-11-27T20:14:11.732Z,102252.24
2018-11-27T20:16:41.599Z,102248.95
2018-11-27T20:19:11.878Z,102251.88
2018-11-27T20:21:42.652Z,102255.55
2018-11-27T20:24:13.068Z,102254.91
2018-11-27T20:26:48.533Z,102254.85
2018-11-27T20:29:19.137Z,102251.70
2018-11-27T20:31:53.523Z,102250.37
2018-11-27T20:34:25.010Z,102254.72
2018-11-27T20:36:55.368Z,102256.75
2018-11-27T20:39:25.457Z,102249.23
2018-11-27T20:41:55.816Z,102257.72
2018-11-27T20:44:27.058Z,102265.16
2018-11-27T20:46:57.425Z,102262.71
2018-11-27T20:49:33.093Z,102272.50
2018-11-27T20:52:04.054Z,102263.68
2018-11-27T20:54:34.159Z,102261.03
2018-11-27T20:57:05.472Z,102261.36
2018-11-27T20:59:36.553Z,102264.94
2018-11-27T21:02:08.390Z,102262.97
2018-11-27T21:04:38.872Z,102271.77
2018-11-27T21:07:09.908Z,102257.69
2018-11-27T21:09:39.511Z,102256.36
2018-11-27T21:12:10.959Z,102256.78
2018-11-27T21:14:42.288Z,102248.02
2018-11-27T21:17:15.151Z,102258.72
2018-11-27T21:19:44.428Z,102254.20
2018-11-27T21:22:22.468Z,102245.41
2018-11-27T21:25:06.798Z,102247.34
2018-11-27T21:27:37.494Z,102243.86
2018-11-27T21:30:15.922Z,102248.25
2018-11-27T21:32:50.321Z,102247.89
2018-11-27T21:35:19.785Z,102243.16
2018-11-27T21:37:50.052Z,102245.83
2018-11-27T21:40:20.722Z,102259.94
2018-11-27T21:42:51.937Z,102254.95
2018-11-27T21:45:22.926Z,102253.88
2018-11-27T21:47:55.234Z,102250.47
2018-11-27T21:50:43.213Z,102253.08
2018-11-27T21:53:18.562Z,102250.98
2018-11-27T21:55:49.793Z,102257.32
2018-11-27T21:58:19.200Z,102265.61
2018-11-27T22:00:48.472Z,102271.70
2018-11-27T22:03:17.775Z,102266.74
2018-11-27T22:05:47.367Z,102263.69
2018-11-27T22:08:16.698Z,102253.00
2018-11-27T22:10:45.969Z,102248.27
2018-11-27T22:13:15.273Z,102251.74
2018-11-27T22:15:45.111Z,102257.73
2018-11-27T22:18:14.670Z,102254.26
2018-11-27T22:20:43.998Z,102258.16
2018-11-27T22:23:13.284Z,102261.70
2018-11-27T22:25:42.543Z,102267.48
2018-11-27T22:28:11.918Z,102271.75
2018-11-27T22:30:41.208Z,102275.23
2018-11-27T22:33:10.527Z,102284.05
2018-11-27T22:35:40.361Z,102287.17
2018-11-27T22:38:09.692Z,102281.78
2018-11-27T22:40:40.538Z,102284.05
2018-11-27T22:43:09.872Z,102287.93
2018-11-27T22:45:40.420Z,102287.52
2018-11-27T22:48:12.174Z,102286.30
2018-11-27T22:50:40.514Z,102285.48
2018-11-27T22:53:09.997Z,102285.12
2018-11-27T22:55:41.867Z,102283.88
2018-11-27T22:58:11.179Z,102286.66
2018-11-27T23:00:46.162Z,102283.52
2018-11-27T23:03:15.577Z,102278.69
2018-11-27T23:05:44.904Z,102276.91
2018-11-27T23:08:14.294Z,102281.33
2018-11-27T23:10:44.934Z,102281.83
2018-11-27T23:13:15.164Z,102278.29
2018-11-27T23:15:44.458Z,102270.37
2018-11-27T23:18:13.756Z,102265.98
2018-11-27T23:20:43.036Z,102276.52
2018-11-27T23:23:12.347Z,102273.01
2018-11-27T23:25:41.613Z,102269.00
2018-11-27T23:28:10.992Z,102277.87
2018-11-27T23:30:40.686Z,102269.95
2018-11-27T23:33:09.973Z,102266.44
2018-11-27T23:35:39.582Z,102264.28
2018-11-27T23:38:08.874Z,102266.89
2018-11-27T23:40:38.260Z,102268.55
2018-11-27T23:43:07.535Z,102268.44
2018-11-27T23:45:37.021Z,102274.62
2018-11-27T23:48:06.970Z,102271.98
2018-11-27T23:50:36.276Z,102272.95
2018-11-27T23:53:06.096Z,102273.41
2018-11-27T23:55:35.500Z,102279.61
2018-11-27T23:58:04.916Z,102276.12
